sensor_id;sensor_type;location;lat;lon;timestamp;pressure;altitude;pressure_sealevel;temperature;humidity
46408;BME280;32110;45.724;21.276;2023-04-25T00:00:47;99456.72;;;12.27;nan
46408;BME280;32110;45.724;21.276;2023-04-25T00:03:12;99455.94;;;12.27;nan
46408;BME280;32110;45.724;21.276;2023-04-25T00:05:38;99449.56;;;12.28;nan
46408;BME280;32110;45.724;21.276;2023-04-25T00:08:04;99444.03;;;12.24;nan
46408;BME280;32110;45.724;21.276;2023-04-25T00:10:30;99442.19;;;12.20;nan
46408;BME280;32110;45.724;21.276;2023-04-25T00:12:56;99449.56;;;12.28;nan
46408;BME280;32110;45.724;21.276;2023-04-25T00:15:22;99423.91;;;12.08;nan
46408;BME280;32110;45.724;21.276;2023-04-25T00:17:48;99449.03;;;12.26;nan
46408;BME280;32110;45.724;21.276;2023-04-25T00:20:13;99439.78;;;12.18;nan
46408;BME280;32110;45.724;21.276;2023-04-25T00:22:39;99449.56;;;12.23;nan
46408;BME280;32110;45.724;21.276;2023-04-25T00:25:05;99442.19;;;12.20;nan
46408;BME280;32110;45.724;21.276;2023-04-25T00:27:31;99427.63;;;12.12;nan
46408;BME280;32110;45.724;21.276;2023-04-25T00:29:57;99440.06;;;12.17;nan
46408;BME280;32110;45.724;21.276;2023-04-25T00:32:22;99421.28;;;12.08;nan
46408;BME280;32110;45.724;21.276;2023-04-25T00:34:47;99402.25;;;11.96;nan
46408;BME280;32110;45.724;21.276;2023-04-25T00:37:13;99394.81;;;11.87;nan
46408;BME280;32110;45.724;21.276;2023-04-25T00:39:39;99375.50;;;11.82;nan
46408;BME280;32110;45.724;21.276;2023-04-25T00:42:04;99355.06;;;11.52;nan
46408;BME280;32110;45.724;21.276;2023-04-25T00:44:31;99349.56;;;11.58;nan
46408;BME280;32110;45.724;21.276;2023-04-25T00:46:57;99399.28;;;11.87;nan
46408;BME280;32110;45.724;21.276;2023-04-25T00:49:23;99386.09;;;11.87;nan
46408;BME280;32110;45.724;21.276;2023-04-25T00:51:48;99415.69;;;11.99;nan
46408;BME280;32110;45.724;21.276;2023-04-25T00:54:14;99369.91;;;11.73;nan
46408;BME280;32110;45.724;21.276;2023-04-25T00:56:40;99362.19;;;11.56;nan
46408;BME280;32110;45.724;21.276;2023-04-25T00:59:06;99330.25;;;11.42;nan
46408;BME280;32110;45.724;21.276;2023-04-25T01:01:33;99326.03;;;11.46;nan
46408;BME280;32110;45.724;21.276;2023-04-25T01:03:58;99391.09;;;11.83;nan
46408;BME280;32110;45.724;21.276;2023-04-25T01:06:24;99327.34;;;11.44;nan
46408;BME280;32110;45.724;21.276;2023-04-25T01:08:51;99361.41;;;11.56;nan
46408;BME280;32110;45.724;21.276;2023-04-25T01:11:17;99373.28;;;11.58;nan
46408;BME280;32110;45.724;21.276;2023-04-25T01:13:42;99341.56;;;11.38;nan
46408;BME280;32110;45.724;21.276;2023-04-25T01:16:08;99345.31;;;11.47;nan
46408;BME280;32110;45.724;21.276;2023-04-25T01:18:33;99395.31;;;11.84;nan
46408;BME280;32110;45.724;21.276;2023-04-25T01:21:07;99334.97;;;11.35;nan
46408;BME280;32110;45.724;21.276;2023-04-25T01:23:33;99309.09;;;11.27;nan
46408;BME280;32110;45.724;21.276;2023-04-25T01:25:59;99324.66;;;11.28;nan
46408;BME280;32110;45.724;21.276;2023-04-25T01:28:25;99346.63;;;11.49;nan
46408;BME280;32110;45.724;21.276;2023-04-25T01:30:51;99374.94;;;11.69;nan
46408;BME280;32110;45.724;21.276;2023-04-25T01:33:17;99346.38;;;11.56;nan
46408;BME280;32110;45.724;21.276;2023-04-25T01:35:44;99339.22;;;11.46;nan
46408;BME280;32110;45.724;21.276;2023-04-25T01:38:12;99380.22;;;11.69;nan
46408;BME280;32110;45.724;21.276;2023-04-25T01:40:39;99371.75;;;11.67;nan
46408;BME280;32110;45.724;21.276;2023-04-25T01:43:05;99318.84;;;11.26;nan
46408;BME280;32110;45.724;21.276;2023-04-25T01:45:31;99346.13;;;11.53;nan
46408;BME280;32110;45.724;21.276;2023-04-25T01:47:58;99342.13;;;11.45;nan
46408;BME280;32110;45.724;21.276;2023-04-25T01:50:25;99351.38;;;11.47;nan
46408;BME280;32110;45.724;21.276;2023-04-25T01:52:50;99358.78;;;11.56;nan
46408;BME280;32110;45.724;21.276;2023-04-25T01:55:16;99394.97;;;11.70;nan
46408;BME280;32110;45.724;21.276;2023-04-25T01:57:42;99351.41;;;11.58;nan
46408;BME280;32110;45.724;21.276;2023-04-25T02:00:07;99343.75;;;11.56;nan
46408;BME280;32110;45.724;21.276;2023-04-25T02:02:34;99364.63;;;11.68;nan
46408;BME280;32110;45.724;21.276;2023-04-25T02:05:00;99375.75;;;11.75;nan
46408;BME280;32110;45.724;21.276;2023-04-25T02:07:26;99377.88;;;11.78;nan
46408;BME280;32110;45.724;21.276;2023-04-25T02:09:52;99383.66;;;11.80;nan
46408;BME280;32110;45.724;21.276;2023-04-25T02:12:17;99379.47;;;11.79;nan
46408;BME280;32110;45.724;21.276;2023-04-25T02:14:43;99387.66;;;11.83;nan
46408;BME280;32110;45.724;21.276;2023-04-25T02:17:08;99368.13;;;11.79;nan
46408;BME280;32110;45.724;21.276;2023-04-25T02:19:34;99372.09;;;11.81;nan
46408;BME280;32110;45.724;21.276;2023-04-25T02:21:59;99354.38;;;11.71;nan
46408;BME280;32110;45.724;21.276;2023-04-25T02:24:25;99362.31;;;11.77;nan
46408;BME280;32110;45.724;21.276;2023-04-25T02:26:50;99355.97;;;11.78;nan
46408;BME280;32110;45.724;21.276;2023-04-25T02:29:16;99357.56;;;11.79;nan
46408;BME280;32110;45.724;21.276;2023-04-25T02:31:42;99347.56;;;11.81;nan
46408;BME280;32110;45.724;21.276;2023-04-25T02:34:07;99342.28;;;11.81;nan
46408;BME280;32110;45.724;21.276;2023-04-25T02:36:32;99350.22;;;11.86;nan
46408;BME280;32110;45.724;21.276;2023-04-25T02:39:00;99355.78;;;11.89;nan
46408;BME280;32110;45.724;21.276;2023-04-25T02:41:26;99349.47;;;11.90;nan
46408;BME280;32110;45.724;21.276;2023-04-25T02:43:52;99345.72;;;11.86;nan
46408;BME280;32110;45.724;21.276;2023-04-25T02:46:17;99350.78;;;11.93;nan
46408;BME280;32110;45.724;21.276;2023-04-25T02:48:43;99351.03;;;11.91;nan
46408;BME280;32110;45.724;21.276;2023-04-25T02:51:08;99361.59;;;11.97;nan
46408;BME280;32110;45.724;21.276;2023-04-25T02:53:34;99351.03;;;11.91;nan
46408;BME280;32110;45.724;21.276;2023-04-25T02:55:59;99345.50;;;11.93;nan
46408;BME280;32110;45.724;21.276;2023-04-25T02:58:25;99343.09;;;11.86;nan
46408;BME280;32110;45.724;21.276;2023-04-25T03:00:50;99331.22;;;11.84;nan
46408;BME280;32110;45.724;21.276;2023-04-25T03:03:16;99353.44;;;11.93;nan
46408;BME280;32110;45.724;21.276;2023-04-25T03:05:48;99330.66;;;11.82;nan
46408;BME280;32110;45.724;21.276;2023-04-25T03:08:13;99316.69;;;11.76;nan
46408;BME280;32110;45.724;21.276;2023-04-25T03:10:39;99315.63;;;11.77;nan
46408;BME280;32110;45.724;21.276;2023-04-25T03:13:04;99320.66;;;11.79;nan
46408;BME280;32110;45.724;21.276;2023-04-25T03:15:30;99345.50;;;11.93;nan
46408;BME280;32110;45.724;21.276;2023-04-25T03:17:56;99304.28;;;11.71;nan
46408;BME280;32110;45.724;21.276;2023-04-25T03:20:22;99281.84;;;11.64;nan
46408;BME280;32110;45.724;21.276;2023-04-25T03:22:47;99314.31;;;11.80;nan
46408;BME280;32110;45.724;21.276;2023-04-25T03:25:12;99270.69;;;11.52;nan
46408;BME280;32110;45.724;21.276;2023-04-25T03:27:38;99307.94;;;11.70;nan
46408;BME280;32110;45.724;21.276;2023-04-25T03:30:04;99313.75;;;11.73;nan
46408;BME280;32110;45.724;21.276;2023-04-25T03:32:29;99232.09;;;11.20;nan
46408;BME280;32110;45.724;21.276;2023-04-25T03:34:55;99312.19;;;11.71;nan
46408;BME280;32110;45.724;21.276;2023-04-25T03:37:21;99256.69;;;11.36;nan
46408;BME280;32110;45.724;21.276;2023-04-25T03:39:46;99245.03;;;11.21;nan
46408;BME280;32110;45.724;21.276;2023-04-25T03:42:11;99290.00;;;11.62;nan
46408;BME280;32110;45.724;21.276;2023-04-25T03:44:37;99263.53;;;11.37;nan
46408;BME280;32110;45.724;21.276;2023-04-25T03:47:02;99289.69;;;11.54;nan
46408;BME280;32110;45.724;21.276;2023-04-25T03:49:28;99310.56;;;11.65;nan
46408;BME280;32110;45.724;21.276;2023-04-25T03:51:53;99329.09;;;11.81;nan
46408;BME280;32110;45.724;21.276;2023-04-25T03:54:19;99339.13;;;11.84;nan
46408;BME280;32110;45.724;21.276;2023-04-25T03:56:44;99298.69;;;11.58;nan
46408;BME280;32110;45.724;21.276;2023-04-25T03:59:09;99328.78;;;11.72;nan
46408;BME280;32110;45.724;21.276;2023-04-25T04:01:35;99291.78;;;11.52;nan
46408;BME280;32110;45.724;21.276;2023-04-25T04:04:00;99325.09;;;11.73;nan
46408;BME280;32110;45.724;21.276;2023-04-25T04:06:26;99331.72;;;11.76;nan
46408;BME280;32110;45.724;21.276;2023-04-25T04:08:51;99332.78;;;11.80;nan
46408;BME280;32110;45.724;21.276;2023-04-25T04:11:17;99341.75;;;11.84;nan
46408;BME280;32110;45.724;21.276;2023-04-25T04:13:42;99337.00;;;11.81;nan
46408;BME280;32110;45.724;21.276;2023-04-25T04:16:08;99332.22;;;11.78;nan
46408;BME280;32110;45.724;21.276;2023-04-25T04:18:33;99340.69;;;11.80;nan
46408;BME280;32110;45.724;21.276;2023-04-25T04:20:59;99338.03;;;11.75;nan
46408;BME280;32110;45.724;21.276;2023-04-25T04:23:25;99340.41;;;11.76;nan
46408;BME280;32110;45.724;21.276;2023-04-25T04:25:52;99342.78;;;11.78;nan
46408;BME280;32110;45.724;21.276;2023-04-25T04:28:19;99338.03;;;11.75;nan
46408;BME280;32110;45.724;21.276;2023-04-25T04:30:45;99337.25;;;11.79;nan
46408;BME280;32110;45.724;21.276;2023-04-25T04:33:11;99327.72;;;11.73;nan
46408;BME280;32110;45.724;21.276;2023-04-25T04:35:37;99331.72;;;11.81;nan
46408;BME280;32110;45.724;21.276;2023-04-25T04:38:03;99331.22;;;11.84;nan
46408;BME280;32110;45.724;21.276;2023-04-25T04:40:28;99330.13;;;11.80;nan
46408;BME280;32110;45.724;21.276;2023-04-25T04:42:56;99316.94;;;11.75;nan
46408;BME280;32110;45.724;21.276;2023-04-25T04:45:23;99339.94;;;11.89;nan
46408;BME280;32110;45.724;21.276;2023-04-25T04:47:49;99328.03;;;11.82;nan
46408;BME280;32110;45.724;21.276;2023-04-25T04:50:14;99344.72;;;11.93;nan
46408;BME280;32110;45.724;21.276;2023-04-25T04:52:41;99345.50;;;11.93;nan
46408;BME280;32110;45.724;21.276;2023-04-25T04:55:07;99327.00;;;11.83;nan
46408;BME280;32110;45.724;21.276;2023-04-25T04:57:34;99345.50;;;11.93;nan
46408;BME280;32110;45.724;21.276;2023-04-25T05:00:00;99329.88;;;11.81;nan
46408;BME280;32110;45.724;21.276;2023-04-25T05:02:26;99344.19;;;11.90;nan
46408;BME280;32110;45.724;21.276;2023-04-25T05:04:52;99352.09;;;11.90;nan
46408;BME280;32110;45.724;21.276;2023-04-25T05:07:19;99352.34;;;11.89;nan
46408;BME280;32110;45.724;21.276;2023-04-25T05:09:44;99343.66;;;11.88;nan
46408;BME280;32110;45.724;21.276;2023-04-25T05:12:10;99344.44;;;11.89;nan
46408;BME280;32110;45.724;21.276;2023-04-25T05:14:36;99341.00;;;11.88;nan
46408;BME280;32110;45.724;21.276;2023-04-25T05:17:01;99335.41;;;11.85;nan
46408;BME280;32110;45.724;21.276;2023-04-25T05:19:30;99339.66;;;11.86;nan
46408;BME280;32110;45.724;21.276;2023-04-25T05:21:55;99337.59;;;11.88;nan
46408;BME280;32110;45.724;21.276;2023-04-25T05:24:21;99350.50;;;11.95;nan
46408;BME280;32110;45.724;21.276;2023-04-25T05:26:46;99328.06;;;11.87;nan
46408;BME280;32110;45.724;21.276;2023-04-25T05:29:12;99343.91;;;11.92;nan
46408;BME280;32110;45.724;21.276;2023-04-25T05:31:37;99324.84;;;11.80;nan
46408;BME280;32110;45.724;21.276;2023-04-25T05:34:05;99338.06;;;11.85;nan
46408;BME280;32110;45.724;21.276;2023-04-25T05:36:31;99357.63;;;11.94;nan
46408;BME280;32110;45.724;21.276;2023-04-25T05:38:57;99351.31;;;11.95;nan
46408;BME280;32110;45.724;21.276;2023-04-25T05:41:25;99345.50;;;11.88;nan
46408;BME280;32110;45.724;21.276;2023-04-25T05:43:51;99344.16;;;11.85;nan
46408;BME280;32110;45.724;21.276;2023-04-25T05:46:16;99348.13;;;11.88;nan
46408;BME280;32110;45.724;21.276;2023-04-25T05:48:44;99329.88;;;11.76;nan
46408;BME280;32110;45.724;21.276;2023-04-25T05:51:10;99345.94;;;11.80;nan
46408;BME280;32110;45.724;21.276;2023-04-25T05:53:35;99339.09;;;11.79;nan
46408;BME280;32110;45.724;21.276;2023-04-25T05:56:01;99345.16;;;11.79;nan
46408;BME280;32110;45.724;21.276;2023-04-25T05:58:26;99331.19;;;11.74;nan
46408;BME280;32110;45.724;21.276;2023-04-25T06:00:52;99336.16;;;11.70;nan
46408;BME280;32110;45.724;21.276;2023-04-25T06:03:17;99347.53;;;11.76;nan
46408;BME280;32110;45.724;21.276;2023-04-25T06:05:43;99355.19;;;11.82;nan
46408;BME280;32110;45.724;21.276;2023-04-25T06:08:09;99345.41;;;11.78;nan
46408;BME280;32110;45.724;21.276;2023-04-25T06:10:36;99332.19;;;11.62;nan
46408;BME280;32110;45.724;21.276;2023-04-25T06:13:01;99345.63;;;11.66;nan
46408;BME280;32110;45.724;21.276;2023-04-25T06:15:27;99345.63;;;11.66;nan
46408;BME280;32110;45.724;21.276;2023-04-25T06:17:52;99352.28;;;11.74;nan
46408;BME280;32110;45.724;21.276;2023-04-25T06:20:18;99353.28;;;11.62;nan
46408;BME280;32110;45.724;21.276;2023-04-25T06:22:48;99355.38;;;11.60;nan
46408;BME280;32110;45.724;21.276;2023-04-25T06:25:13;99361.88;;;11.42;nan
46408;BME280;32110;45.724;21.276;2023-04-25T06:27:41;99358.75;;;11.45;nan
46408;BME280;32110;45.724;21.276;2023-04-25T06:30:07;99348.63;;;11.27;nan
46408;BME280;32110;45.724;21.276;2023-04-25T06:32:32;99358.69;;;11.35;nan
46408;BME280;32110;45.724;21.276;2023-04-25T06:34:59;99338.53;;;11.14;nan
46408;BME280;32110;45.724;21.276;2023-04-25T06:37:25;99373.38;;;11.26;nan
46408;BME280;32110;45.724;21.276;2023-04-25T06:39:51;99354.34;;;11.14;nan
46408;BME280;32110;45.724;21.276;2023-04-25T06:42:16;99370.97;;;11.19;nan
46408;BME280;32110;45.724;21.276;2023-04-25T06:44:42;99364.63;;;11.15;nan
46408;BME280;32110;45.724;21.276;2023-04-25T06:47:07;99361.97;;;11.15;nan
46408;BME280;32110;45.724;21.276;2023-04-25T06:49:33;99370.97;;;11.19;nan
46408;BME280;32110;45.724;21.276;2023-04-25T06:51:58;99362.28;;;11.19;nan
46408;BME280;32110;45.724;21.276;2023-04-25T06:54:26;99361.38;;;11.03;nan
46408;BME280;32110;45.724;21.276;2023-04-25T06:56:55;99372.66;;;10.98;nan
46408;BME280;32110;45.724;21.276;2023-04-25T06:59:21;99381.34;;;10.99;nan
46408;BME280;32110;45.724;21.276;2023-04-25T07:01:47;99383.47;;;10.97;nan
46408;BME280;32110;45.724;21.276;2023-04-25T07:04:12;99387.13;;;10.96;nan
46408;BME280;32110;45.724;21.276;2023-04-25T07:06:38;99383.41;;;10.92;nan
46408;BME280;32110;45.724;21.276;2023-04-25T07:09:07;99386.00;;;10.86;nan
46408;BME280;32110;45.724;21.276;2023-04-25T07:11:33;99386.28;;;10.85;nan
46408;BME280;32110;45.724;21.276;2023-04-25T07:13:59;99380.97;;;10.80;nan
46408;BME280;32110;45.724;21.276;2023-04-25T07:16:25;99367.63;;;10.59;nan
46408;BME280;32110;45.724;21.276;2023-04-25T07:18:50;99383.31;;;10.76;nan
46408;BME280;32110;45.724;21.276;2023-04-25T07:21:16;99381.56;;;10.60;nan
46408;BME280;32110;45.724;21.276;2023-04-25T07:23:41;99396.66;;;10.70;nan
46408;BME280;32110;45.724;21.276;2023-04-25T07:26:06;99383.69;;;10.63;nan
46408;BME280;32110;45.724;21.276;2023-04-25T07:28:32;99367.50;;;10.44;nan
46408;BME280;32110;45.724;21.276;2023-04-25T07:30:58;99394.19;;;10.58;nan
46408;BME280;32110;45.724;21.276;2023-04-25T07:33:23;99400.16;;;10.48;nan
46408;BME280;32110;45.724;21.276;2023-04-25T07:35:49;99412.53;;;10.48;nan
46408;BME280;32110;45.724;21.276;2023-04-25T07:38:15;99400.56;;;10.35;nan
46408;BME280;32110;45.724;21.276;2023-04-25T07:40:40;99410.41;;;10.45;nan
46408;BME280;32110;45.724;21.276;2023-04-25T07:43:06;99414.31;;;10.42;nan
46408;BME280;32110;45.724;21.276;2023-04-25T07:45:31;99416.69;;;10.43;nan
46408;BME280;32110;45.724;21.276;2023-04-25T07:47:57;99402.88;;;10.31;nan
46408;BME280;32110;45.724;21.276;2023-04-25T07:50:22;99431.63;;;10.38;nan
46408;BME280;32110;45.724;21.276;2023-04-25T07:52:48;99415.84;;;10.38;nan
46408;BME280;32110;45.724;21.276;2023-04-25T07:55:13;99427.44;;;10.37;nan
46408;BME280;32110;45.724;21.276;2023-04-25T07:57:39;99438.06;;;10.47;nan
46408;BME280;32110;45.724;21.276;2023-04-25T08:00:05;99421.63;;;10.35;nan
46408;BME280;32110;45.724;21.276;2023-04-25T08:02:35;99438.19;;;10.35;nan
46408;BME280;32110;45.724;21.276;2023-04-25T08:05:01;99431.50;;;10.28;nan
46408;BME280;32110;45.724;21.276;2023-04-25T08:07:27;99445.41;;;10.23;nan
46408;BME280;32110;45.724;21.276;2023-04-25T08:09:54;99441.38;;;10.15;nan
46408;BME280;32110;45.724;21.276;2023-04-25T08:12:19;99420.06;;;9.73;nan
46408;BME280;32110;45.724;21.276;2023-04-25T08:14:45;99434.56;;;9.97;nan
46408;BME280;32110;45.724;21.276;2023-04-25T08:17:10;99462.47;;;9.98;nan
46408;BME280;32110;45.724;21.276;2023-04-25T08:19:36;99377.81;;;9.41;nan
46408;BME280;32110;45.724;21.276;2023-04-25T08:22:01;99395.25;;;9.47;nan
46408;BME280;32110;45.724;21.276;2023-04-25T08:24:27;99432.81;;;9.64;nan
46408;BME280;32110;45.724;21.276;2023-04-25T08:26:52;99413.44;;;9.48;nan
46408;BME280;32110;45.724;21.276;2023-04-25T08:29:19;99383.59;;;9.21;nan
46408;BME280;32110;45.724;21.276;2023-04-25T08:31:44;99443.91;;;9.49;nan
46408;BME280;32110;45.724;21.276;2023-04-25T08:34:09;99495.78;;;9.93;nan
46408;BME280;32110;45.724;21.276;2023-04-25T08:36:36;99381.53;;;9.06;nan
46408;BME280;32110;45.724;21.276;2023-04-25T08:39:01;99435.81;;;9.34;nan
46408;BME280;32110;45.724;21.276;2023-04-25T08:41:27;99462.00;;;9.63;nan
46408;BME280;32110;45.724;21.276;2023-04-25T08:43:53;99517.03;;;10.08;nan
46408;BME280;32110;45.724;21.276;2023-04-25T08:46:20;99432.31;;;9.28;nan
46408;BME280;32110;45.724;21.276;2023-04-25T08:48:46;99446.00;;;9.30;nan
46408;BME280;32110;45.724;21.276;2023-04-25T08:51:22;99497.16;;;9.78;nan
46408;BME280;32110;45.724;21.276;2023-04-25T08:53:51;99475.53;;;9.54;nan
46408;BME280;32110;45.724;21.276;2023-04-25T08:56:17;99443.28;;;9.42;nan
46408;BME280;32110;45.724;21.276;2023-04-25T08:58:43;99442.00;;;9.45;nan
46408;BME280;32110;45.724;21.276;2023-04-25T09:01:11;99400.72;;;9.06;nan
46408;BME280;32110;45.724;21.276;2023-04-25T09:03:36;99478.84;;;9.67;nan
46408;BME280;32110;45.724;21.276;2023-04-25T09:06:02;99528.75;;;10.00;nan
46408;BME280;32110;45.724;21.276;2023-04-25T09:08:27;99519.78;;;9.96;nan
46408;BME280;32110;45.724;21.276;2023-04-25T09:10:52;99526.59;;;9.97;nan
46408;BME280;32110;45.724;21.276;2023-04-25T09:13:25;99554.59;;;10.04;nan
46408;BME280;32110;45.724;21.276;2023-04-25T09:15:53;99553.38;;;10.11;nan
46408;BME280;32110;45.724;21.276;2023-04-25T09:18:30;99555.28;;;10.16;nan
46408;BME280;32110;45.724;21.276;2023-04-25T09:21:05;99543.09;;;10.10;nan
46408;BME280;32110;45.724;21.276;2023-04-25T09:23:43;99556.69;;;10.23;nan
46408;BME280;32110;45.724;21.276;2023-04-25T09:26:09;99537.03;;;10.09;nan
46408;BME280;32110;45.724;21.276;2023-04-25T09:28:35;99561.25;;;10.28;nan
46408;BME280;32110;45.724;21.276;2023-04-25T09:31:01;99565.47;;;10.29;nan
46408;BME280;32110;45.724;21.276;2023-04-25T09:33:31;99559.97;;;10.31;nan
46408;BME280;32110;45.724;21.276;2023-04-25T09:36:25;99563.94;;;10.33;nan
46408;BME280;32110;45.724;21.276;2023-04-25T09:38:51;99563.41;;;10.31;nan
46408;BME280;32110;45.724;21.276;2023-04-25T09:41:24;99570.81;;;10.34;nan
46408;BME280;32110;45.724;21.276;2023-04-25T09:43:50;99559.97;;;10.31;nan
46408;BME280;32110;45.724;21.276;2023-04-25T09:46:16;99564.81;;;10.39;nan
46408;BME280;32110;45.724;21.276;2023-04-25T09:48:52;99551.03;;;10.32;nan
46408;BME280;32110;45.724;21.276;2023-04-25T09:51:19;99561.09;;;10.35;nan
46408;BME280;32110;45.724;21.276;2023-04-25T09:53:45;99566.41;;;10.40;nan
46408;BME280;32110;45.724;21.276;2023-04-25T09:56:12;99561.94;;;10.40;nan
46408;BME280;32110;45.724;21.276;2023-04-25T09:58:39;99567.19;;;10.40;nan
46408;BME280;32110;45.724;21.276;2023-04-25T10:01:07;99565.91;;;10.43;nan
46408;BME280;32110;45.724;21.276;2023-04-25T10:03:37;99559.06;;;10.42;nan
46408;BME280;32110;45.724;21.276;2023-04-25T10:06:09;99564.16;;;10.49;nan
46408;BME280;32110;45.724;21.276;2023-04-25T10:08:38;99558.34;;;10.47;nan
46408;BME280;32110;45.724;21.276;2023-04-25T10:11:05;99556.19;;;10.43;nan
46408;BME280;32110;45.724;21.276;2023-04-25T10:13:31;99571.84;;;10.55;nan
46408;BME280;32110;45.724;21.276;2023-04-25T10:16:01;99552.25;;;10.46;nan
46408;BME280;32110;45.724;21.276;2023-04-25T10:18:31;99550.19;;;10.48;nan
46408;BME280;32110;45.724;21.276;2023-04-25T10:21:00;99559.00;;;10.59;nan
46408;BME280;32110;45.724;21.276;2023-04-25T10:23:30;99561.66;;;10.59;nan
46408;BME280;32110;45.724;21.276;2023-04-25T10:25:59;99560.78;;;10.53;nan
46408;BME280;32110;45.724;21.276;2023-04-25T10:28:25;99553.63;;;10.49;nan
46408;BME280;32110;45.724;21.276;2023-04-25T10:31:03;99563.66;;;10.52;nan
46408;BME280;32110;45.724;21.276;2023-04-25T10:33:36;99567.94;;;10.58;nan
46408;BME280;32110;45.724;21.276;2023-04-25T10:36:23;99562.38;;;10.54;nan
46408;BME280;32110;45.724;21.276;2023-04-25T10:38:51;99569.03;;;10.62;nan
46408;BME280;32110;45.724;21.276;2023-04-25T10:41:20;99560.84;;;10.58;nan
46408;BME280;32110;45.724;21.276;2023-04-25T10:43:47;99575.97;;;10.68;nan
46408;BME280;32110;45.724;21.276;2023-04-25T10:46:28;99567.06;;;10.74;nan
46408;BME280;32110;45.724;21.276;2023-04-25T10:48:57;99573.94;;;10.75;nan
46408;BME280;32110;45.724;21.276;2023-04-25T10:51:25;99544.25;;;10.58;nan
46408;BME280;32110;45.724;21.276;2023-04-25T10:56:22;99577.94;;;10.78;nan
46408;BME280;32110;45.724;21.276;2023-04-25T10:58:49;99573.22;;;10.80;nan
46408;BME280;32110;45.724;21.276;2023-04-25T11:01:19;99567.56;;;10.71;nan
46408;BME280;32110;45.724;21.276;2023-04-25T11:03:45;99556.94;;;10.61;nan
46408;BME280;32110;45.724;21.276;2023-04-25T11:09:11;99589.81;;;10.80;nan
46408;BME280;32110;45.724;21.276;2023-04-25T11:11:40;99594.00;;;10.81;nan
46408;BME280;32110;45.724;21.276;2023-04-25T11:14:09;99590.88;;;10.84;nan
46408;BME280;32110;45.724;21.276;2023-04-25T11:16:36;99586.44;;;10.85;nan
46408;BME280;32110;45.724;21.276;2023-04-25T11:19:02;99571.84;;;10.77;nan
46408;BME280;32110;45.724;21.276;2023-04-25T11:21:32;99580.63;;;10.83;nan
46408;BME280;32110;45.724;21.276;2023-04-25T11:23:57;99588.56;;;10.88;nan
46408;BME280;32110;45.724;21.276;2023-04-25T11:26:25;99589.84;;;10.85;nan
46408;BME280;32110;45.724;21.276;2023-04-25T11:28:58;99581.91;;;10.80;nan
46408;BME280;32110;45.724;21.276;2023-04-25T11:31:25;99564.94;;;10.71;nan
46408;BME280;32110;45.724;21.276;2023-04-25T11:33:53;99589.84;;;10.85;nan
46408;BME280;32110;45.724;21.276;2023-04-25T11:36:22;99589.34;;;10.89;nan
46408;BME280;32110;45.724;21.276;2023-04-25T11:38:50;99586.72;;;10.89;nan
46408;BME280;32110;45.724;21.276;2023-04-25T11:41:19;99588.56;;;10.88;nan
46408;BME280;32110;45.724;21.276;2023-04-25T11:43:45;99582.75;;;10.86;nan
46408;BME280;32110;45.724;21.276;2023-04-25T11:46:11;99590.69;;;10.91;nan
46408;BME280;32110;45.724;21.276;2023-04-25T11:48:38;99548.03;;;10.67;nan
46408;BME280;32110;45.724;21.276;2023-04-25T11:51:06;99565.56;;;10.78;nan
46408;BME280;32110;45.724;21.276;2023-04-25T11:53:38;99573.50;;;10.83;nan
46408;BME280;32110;45.724;21.276;2023-04-25T11:56:09;99572.94;;;10.81;nan
46408;BME280;32110;45.724;21.276;2023-04-25T11:58:58;99587.50;;;10.89;nan
46408;BME280;32110;45.724;21.276;2023-04-25T12:04:16;99571.72;;;10.89;nan
46408;BME280;32110;45.724;21.276;2023-04-25T12:06:43;99582.06;;;10.96;nan
46408;BME280;32110;45.724;21.276;2023-04-25T12:09:12;99558.75;;;10.82;nan
46408;BME280;32110;45.724;21.276;2023-04-25T12:11:42;99574.16;;;10.96;nan
46408;BME280;32110;45.724;21.276;2023-04-25T12:14:09;99576.59;;;11.02;nan
46408;BME280;32110;45.724;21.276;2023-04-25T12:16:45;99578.75;;;11.05;nan
46408;BME280;32110;45.724;21.276;2023-04-25T12:19:15;99576.66;;;11.07;nan
46408;BME280;32110;45.724;21.276;2023-04-25T12:21:44;99570.84;;;11.05;nan
46408;BME280;32110;45.724;21.276;2023-04-25T12:24:21;99571.44;;;11.13;nan
46408;BME280;32110;45.724;21.276;2023-04-25T12:27:04;99565.94;;;11.14;nan
46408;BME280;32110;45.724;21.276;2023-04-25T12:29:34;99558.25;;;11.13;nan
46408;BME280;32110;45.724;21.276;2023-04-25T12:32:00;99560.47;;;11.21;nan
46408;BME280;32110;45.724;21.276;2023-04-25T12:39:21;99558.97;;;11.30;nan
46408;BME280;32110;45.724;21.276;2023-04-25T12:41:51;99556.34;;;11.30;nan
46408;BME280;32110;45.724;21.276;2023-04-25T12:44:20;99560.59;;;11.36;nan
46408;BME280;32110;45.724;21.276;2023-04-25T12:46:48;99541.59;;;11.34;nan
46408;BME280;32110;45.724;21.276;2023-04-25T12:49:17;99555.63;;;11.40;nan
46408;BME280;32110;45.724;21.276;2023-04-25T12:51:42;99540.56;;;11.35;nan
46408;BME280;32110;45.724;21.276;2023-04-25T12:54:08;99540.56;;;11.35;nan
46408;BME280;32110;45.724;21.276;2023-04-25T12:56:34;99548.78;;;11.44;nan
46408;BME280;32110;45.724;21.276;2023-04-25T12:59:00;99554.09;;;11.49;nan
46408;BME280;32110;45.724;21.276;2023-04-25T13:01:28;99543.03;;;11.47;nan
46408;BME280;32110;45.724;21.276;2023-04-25T13:03:57;99534.25;;;11.41;nan
46408;BME280;32110;45.724;21.276;2023-04-25T13:06:22;99536.38;;;11.44;nan
46408;BME280;32110;45.724;21.276;2023-04-25T13:08:48;99549.41;;;11.56;nan
46408;BME280;32110;45.724;21.276;2023-04-25T13:11:14;99543.09;;;11.57;nan
46408;BME280;32110;45.724;21.276;2023-04-25T13:13:40;99528.53;;;11.49;nan
46408;BME280;32110;45.724;21.276;2023-04-25T13:16:06;99543.13;;;11.62;nan
46408;BME280;32110;45.724;21.276;2023-04-25T13:18:33;99537.63;;;11.64;nan
46408;BME280;32110;45.724;21.276;2023-04-25T13:20:59;99535.47;;;11.61;nan
46408;BME280;32110;45.724;21.276;2023-04-25T13:23:26;99528.38;;;11.61;nan